createdAt,value
2019-04-16T00:00:45.194Z,0
2019-04-16T00:01:46.556Z,0
2019-04-16T00:02:48.571Z,0
2019-04-16T00:03:53.607Z,0
2019-04-16T00:04:50.549Z,0
2019-04-16T00:05:51.965Z,0
2019-04-16T00:06:53.470Z,0
2019-04-16T00:07:54.636Z,0
2019-04-16T00:08:57.263Z,0
2019-04-16T00:09:57.302Z,0
2019-04-16T00:10:58.655Z,0
2019-04-16T00:12:00.104Z,0
2019-04-16T00:13:01.310Z,0
2019-04-16T00:14:03.660Z,0
2019-04-16T00:15:04.007Z,0
2019-04-16T00:16:05.425Z,0
2019-04-16T00:17:06.717Z,0
2019-04-16T00:18:08.059Z,0
2019-04-16T00:19:09.409Z,0
2019-04-16T00:20:10.763Z,0
2019-04-16T00:21:12.114Z,0
2019-04-16T00:22:13.467Z,0
2019-04-16T00:23:14.833Z,0
2019-04-16T00:24:18.438Z,0
2019-04-16T00:25:17.496Z,0
2019-04-16T00:26:18.842Z,0
2019-04-16T00:27:20.187Z,0
2019-04-16T00:28:21.533Z,0
2019-04-16T00:29:22.883Z,0
2019-04-16T00:30:24.232Z,0
2019-04-16T00:31:25.582Z,0
2019-04-16T00:32:26.943Z,0
2019-04-16T00:33:28.294Z,0
2019-04-16T00:34:29.643Z,0
2019-04-16T00:35:31.011Z,0
2019-04-16T00:36:32.359Z,0
2019-04-16T00:37:33.710Z,0
2019-04-16T00:38:40.858Z,0
2019-04-16T00:39:36.388Z,0
2019-04-16T00:40:37.738Z,0
2019-04-16T00:41:39.077Z,0
2019-04-16T00:42:40.432Z,0
2019-04-16T00:43:44.027Z,0
2019-04-16T00:44:43.102Z,0
2019-04-16T00:45:44.458Z,0
2019-04-16T00:46:45.801Z,0
2019-04-16T00:47:47.942Z,0
2019-04-16T00:48:48.511Z,0
2019-04-16T00:49:49.854Z,0
2019-04-16T00:50:51.202Z,0
2019-04-16T00:51:52.550Z,0
2019-04-16T00:52:53.987Z,0
2019-04-16T00:53:55.227Z,0
2019-04-16T00:54:56.774Z,0
2019-04-16T00:55:57.902Z,0
2019-04-16T00:56:59.249Z,0
2019-04-16T00:58:00.608Z,0
2019-04-16T00:59:01.948Z,0
2019-04-16T01:00:03.302Z,0
2019-04-16T01:01:04.648Z,0
2019-04-16T01:02:05.995Z,0
2019-04-16T01:03:07.348Z,0
2019-04-16T01:04:09.113Z,0
2019-04-16T01:05:10.028Z,0
2019-04-16T01:06:11.392Z,0
2019-04-16T01:07:12.735Z,0
2019-04-16T01:08:14.083Z,0
2019-04-16T01:09:15.419Z,0
2019-04-16T01:10:16.775Z,0
2019-04-16T01:11:18.125Z,0
2019-04-16T01:12:19.478Z,0
2019-04-16T01:13:21.707Z,0
2019-04-16T01:14:24.258Z,0
2019-04-16T01:15:23.449Z,0
2019-04-16T01:16:24.797Z,0
2019-04-16T01:17:26.140Z,0
2019-04-16T01:18:27.478Z,0
2019-04-16T01:19:28.833Z,0
2019-04-16T01:20:30.184Z,0
2019-04-16T01:21:31.543Z,0
2019-04-16T01:22:32.898Z,0
2019-04-16T01:24:13.735Z,0
2019-04-16T01:25:15.086Z,0
2019-04-16T01:26:16.423Z,0
2019-04-16T01:27:17.792Z,0
2019-04-16T01:28:19.140Z,0
2019-04-16T01:29:20.484Z,0
2019-04-16T01:30:21.830Z,0
2019-04-16T01:31:23.185Z,0
2019-04-16T01:32:24.533Z,0
2019-04-16T01:33:25.895Z,0
2019-04-16T01:34:27.243Z,0
2019-04-16T01:35:28.600Z,0
2019-04-16T01:36:29.933Z,0
2019-04-16T01:37:31.284Z,0
2019-04-16T01:38:32.638Z,0
2019-04-16T01:39:33.988Z,0
2019-04-16T01:40:35.340Z,0
2019-04-16T01:41:36.682Z,0
2019-04-16T01:42:38.032Z,0
2019-04-16T01:43:39.390Z,0
2019-04-16T01:44:40.740Z,0
2019-04-16T01:45:42.096Z,0
2019-04-16T01:46:43.439Z,0
2019-04-16T01:47:44.790Z,0
2019-04-16T01:48:46.148Z,0
2019-04-16T01:49:47.519Z,0
2019-04-16T01:50:48.863Z,0
2019-04-16T01:51:50.219Z,0
2019-04-16T01:52:51.564Z,0
2019-04-16T01:53:53.010Z,0
2019-04-16T01:54:54.781Z,0
2019-04-16T01:55:57.024Z,0
2019-04-16T01:56:59.480Z,0
2019-04-16T01:57:59.643Z,0
2019-04-16T01:58:59.499Z,0
2019-04-16T02:00:00.839Z,0
2019-04-16T02:01:02.192Z,0
2019-04-16T02:02:03.553Z,0
2019-04-16T02:03:04.891Z,0
2019-04-16T02:04:06.244Z,0
2019-04-16T02:05:07.597Z,0
2019-04-16T02:06:08.951Z,0
2019-04-16T02:07:10.299Z,0
2019-04-16T02:08:11.656Z,0
2019-04-16T02:09:22.408Z,0
2019-04-16T02:10:14.324Z,0
2019-04-16T02:11:15.683Z,0
2019-04-16T02:12:17.089Z,0
2019-04-16T02:13:18.440Z,0
2019-04-16T02:14:22.154Z,0
2019-04-16T02:15:21.945Z,0
2019-04-16T02:16:25.123Z,0
2019-04-16T02:17:26.790Z,0
2019-04-16T02:18:29.416Z,0
2019-04-16T02:19:26.371Z,0
2019-04-16T02:20:27.713Z,0
2019-04-16T02:21:29.053Z,0
2019-04-16T02:22:30.414Z,0
2019-04-16T02:23:31.753Z,0
2019-04-16T02:24:33.104Z,0
2019-04-16T02:25:34.459Z,0
2019-04-16T02:26:35.810Z,0
2019-04-16T02:27:37.170Z,0
2019-04-16T02:28:38.582Z,0
2019-04-16T02:29:39.929Z,0
2019-04-16T02:30:41.290Z,0
2019-04-16T02:31:42.637Z,0
2019-04-16T02:32:43.993Z,0
2019-04-16T02:33:45.343Z,0
2019-04-16T02:34:46.703Z,0
2019-04-16T02:35:48.048Z,0
2019-04-16T02:36:49.400Z,0
2019-04-16T02:37:50.754Z,0
2019-04-16T02:38:53.309Z,0
2019-04-16T02:39:53.424Z,0
2019-04-16T02:40:54.777Z,0
2019-04-16T02:41:58.185Z,0
2019-04-16T02:43:04.092Z,0
2019-04-16T02:43:58.751Z,0
2019-04-16T02:45:00.106Z,0
2019-04-16T02:46:01.455Z,0
2019-04-16T02:47:06.178Z,0
2019-04-16T02:48:04.130Z,0
2019-04-16T02:49:05.477Z,0
2019-04-16T02:50:06.846Z,0
2019-04-16T02:51:08.624Z,0
2019-04-16T02:52:15.010Z,0
2019-04-16T02:53:10.836Z,0
2019-04-16T02:54:12.187Z,0
2019-04-16T02:55:13.774Z,0
2019-04-16T02:56:18.780Z,0
2019-04-16T02:57:16.160Z,0
2019-04-16T02:58:17.515Z,0
2019-04-16T02:59:18.872Z,0
2019-04-16T03:00:20.221Z,0
2019-04-16T03:01:21.642Z,0
2019-04-16T03:02:23.686Z,0
2019-04-16T03:03:24.876Z,0
2019-04-16T03:04:27.031Z,0
2019-04-16T03:05:28.986Z,0
2019-04-16T03:06:31.663Z,0
2019-04-16T03:07:29.535Z,0
2019-04-16T03:08:33.387Z,0
2019-04-16T03:09:32.205Z,0
2019-04-16T03:10:33.559Z,0
2019-04-16T03:11:34.911Z,0
2019-04-16T03:12:36.254Z,0
2019-04-16T03:13:37.611Z,0
2019-04-16T03:14:38.956Z,0
2019-04-16T03:15:40.311Z,0
2019-04-16T03:16:41.656Z,0
2019-04-16T03:17:43.715Z,0
2019-04-16T03:18:46.956Z,0
2019-04-16T03:19:50.855Z,0
2019-04-16T03:20:46.966Z,0
2019-04-16T03:21:48.329Z,0
2019-04-16T03:22:49.679Z,0
2019-04-16T03:23:51.036Z,0
2019-04-16T03:24:52.385Z,0
2019-04-16T03:25:53.769Z,0
2019-04-16T03:26:55.120Z,0
2019-04-16T03:27:56.471Z,0
2019-04-16T03:28:59.162Z,0
2019-04-16T03:30:02.957Z,0
2019-04-16T03:31:00.445Z,0
2019-04-16T03:32:01.813Z,0
2019-04-16T03:33:10.195Z,0
2019-04-16T03:34:04.802Z,0
2019-04-16T03:35:05.813Z,0
2019-04-16T03:36:07.391Z,0
2019-04-16T03:37:08.496Z,0
2019-04-16T03:38:09.849Z,0
2019-04-16T03:39:13.591Z,0
2019-04-16T03:40:17.881Z,0
2019-04-16T03:41:13.824Z,0
2019-04-16T03:42:15.165Z,0
2019-04-16T03:43:16.517Z,0
2019-04-16T03:44:17.876Z,0
2019-04-16T03:45:19.216Z,0
2019-04-16T03:46:20.564Z,0
2019-04-16T03:47:21.915Z,0
2019-04-16T03:48:23.436Z,0
2019-04-16T03:49:27.576Z,0
2019-04-16T03:50:30.978Z,0
2019-04-16T03:51:27.225Z,0
2019-04-16T03:52:28.572Z,0
2019-04-16T03:53:29.933Z,0
2019-04-16T03:54:31.290Z,0
2019-04-16T03:55:32.635Z,0
2019-04-16T03:56:33.980Z,0
2019-04-16T03:57:35.333Z,0
2019-04-16T03:58:38.400Z,4
2019-04-16T03:59:40.031Z,4
2019-04-16T04:00:43.683Z,0
2019-04-16T04:01:45.614Z,4
2019-04-16T04:02:41.939Z,4
2019-04-16T04:03:43.325Z,4
2019-04-16T04:04:44.679Z,8
2019-04-16T04:05:46.029Z,8
2019-04-16T04:06:47.380Z,8
2019-04-16T04:07:48.726Z,8
2019-04-16T04:08:53.085Z,12
2019-04-16T04:09:51.550Z,12
2019-04-16T04:10:52.717Z,16
2019-04-16T04:11:54.065Z,20
2019-04-16T04:12:55.416Z,20
2019-04-16T04:13:56.767Z,24
2019-04-16T04:14:58.127Z,32
2019-04-16T04:16:01.689Z,40
2019-04-16T04:17:05.345Z,44
2019-04-16T04:18:02.125Z,56
2019-04-16T04:19:03.499Z,64
2019-04-16T04:20:04.855Z,72
2019-04-16T04:21:06.202Z,84
2019-04-16T04:22:07.570Z,100
2019-04-16T04:23:08.936Z,112
2019-04-16T04:24:10.453Z,136
2019-04-16T04:25:11.602Z,152
2019-04-16T04:26:12.955Z,172
2019-04-16T04:27:18.223Z,196
2019-04-16T04:28:18.479Z,224
2019-04-16T04:29:16.940Z,252
2019-04-16T04:30:18.380Z,284
2019-04-16T04:31:19.621Z,316
2019-04-16T04:32:20.984Z,352
2019-04-16T04:33:22.345Z,388
2019-04-16T04:34:23.695Z,432
2019-04-16T04:35:25.060Z,472
2019-04-16T04:36:27.120Z,520
2019-04-16T04:37:30.934Z,572
2019-04-16T04:38:29.060Z,620
2019-04-16T04:39:30.421Z,676
2019-04-16T04:40:43.877Z,732
2019-04-16T04:41:33.081Z,792
2019-04-16T04:42:34.442Z,852
2019-04-16T04:43:35.786Z,916
2019-04-16T04:44:37.212Z,984
2019-04-16T04:45:40.891Z,1052
2019-04-16T04:46:39.789Z,1124
2019-04-16T04:47:41.144Z,1196
2019-04-16T04:48:42.493Z,1264
2019-04-16T04:49:43.858Z,1340
2019-04-16T04:50:45.212Z,1416
2019-04-16T04:51:46.578Z,1488
2019-04-16T04:52:47.922Z,1572
2019-04-16T04:53:50.247Z,1644
2019-04-16T04:54:51.394Z,1716
2019-04-16T04:55:54.374Z,1792
2019-04-16T04:56:56.414Z,1868
2019-04-16T04:57:55.412Z,1944
2019-04-16T04:58:56.766Z,2028
2019-04-16T04:59:58.120Z,2104
2019-04-16T05:00:59.477Z,2184
2019-04-16T05:02:00.832Z,2264
2019-04-16T05:03:02.186Z,2344
2019-04-16T05:04:03.547Z,2424
2019-04-16T05:05:04.903Z,2504
2019-04-16T05:06:06.267Z,2584
2019-04-16T05:07:07.608Z,2668
2019-04-16T05:08:08.995Z,2748
2019-04-16T05:09:10.323Z,2828
2019-04-16T05:10:11.676Z,2904
2019-04-16T05:11:15.576Z,2980
2019-04-16T05:12:14.357Z,3060
2019-04-16T05:13:15.718Z,3132
2019-04-16T05:14:17.078Z,3208
2019-04-16T05:15:18.428Z,3288
2019-04-16T05:16:19.846Z,3360
2019-04-16T05:17:21.170Z,3432
2019-04-16T05:18:22.533Z,3500
2019-04-16T05:19:23.883Z,3564
2019-04-16T05:20:25.252Z,3620
2019-04-16T05:21:26.608Z,3680
2019-04-16T05:22:27.962Z,3736
2019-04-16T05:23:29.333Z,3796
2019-04-16T05:24:30.688Z,3856
2019-04-16T05:25:34.118Z,3928
2019-04-16T05:26:33.482Z,3992
2019-04-16T05:27:39.896Z,4064
2019-04-16T05:28:36.009Z,4136
2019-04-16T05:29:37.361Z,4208
2019-04-16T05:30:38.724Z,4288
2019-04-16T05:31:40.077Z,4368
2019-04-16T05:32:41.438Z,4444
2019-04-16T05:33:42.790Z,4508
2019-04-16T05:34:44.148Z,4564
2019-04-16T05:35:45.508Z,4556
2019-04-16T05:36:47.949Z,4436
2019-04-16T05:37:48.533Z,4396
2019-04-16T05:38:49.509Z,4560
2019-04-16T05:39:50.862Z,4848
2019-04-16T05:40:52.221Z,4996
2019-04-16T05:41:53.640Z,5072
2019-04-16T05:42:55.859Z,5144
2019-04-16T05:43:58.410Z,5212
2019-04-16T05:44:57.541Z,5280
2019-04-16T05:45:58.897Z,5344
2019-04-16T05:47:00.260Z,5400
2019-04-16T05:48:01.603Z,5460
2019-04-16T05:49:02.963Z,5520
2019-04-16T05:50:04.337Z,5584
2019-04-16T05:51:05.707Z,5620
2019-04-16T05:52:07.053Z,5624
2019-04-16T05:53:09.214Z,5496
2019-04-16T05:54:12.365Z,5324
2019-04-16T05:55:16.797Z,5500
2019-04-16T05:56:12.358Z,5908
2019-04-16T05:57:13.708Z,6124
2019-04-16T05:58:15.068Z,6204
2019-04-16T05:59:16.430Z,6268
2019-04-16T06:00:17.788Z,6340
2019-04-16T06:01:19.147Z,6396
2019-04-16T06:02:20.592Z,6456
2019-04-16T06:03:22.395Z,6520
2019-04-16T06:04:24.953Z,6584
2019-04-16T06:05:26.784Z,6648
2019-04-16T06:06:28.781Z,6724
2019-04-16T06:07:27.099Z,6816
2019-04-16T06:08:28.458Z,6892
2019-04-16T06:09:29.818Z,6976
2019-04-16T06:10:31.186Z,7068
2019-04-16T06:11:35.769Z,7164
2019-04-16T06:12:33.868Z,7256
2019-04-16T06:13:35.224Z,7356
2019-04-16T06:14:36.586Z,7448
2019-04-16T06:15:37.943Z,7540
2019-04-16T06:16:39.313Z,7632
2019-04-16T06:17:40.672Z,7720
2019-04-16T06:18:42.022Z,7820
2019-04-16T06:19:46.482Z,7912
2019-04-16T06:20:44.724Z,7988
2019-04-16T06:21:46.087Z,8040
2019-04-16T06:22:47.444Z,8132
2019-04-16T06:23:48.799Z,8208
2019-04-16T06:24:50.173Z,8380
2019-04-16T06:25:51.576Z,8528
2019-04-16T06:26:52.879Z,8864
2019-04-16T06:27:54.238Z,10360
2019-04-16T06:28:58.278Z,13196
2019-04-16T06:29:57.614Z,14872
2019-04-16T06:30:58.244Z,14568
2019-04-16T06:31:59.638Z,15444
2019-04-16T06:33:00.983Z,15580
2019-04-16T06:34:02.349Z,15796
2019-04-16T06:35:03.699Z,16168
2019-04-16T06:36:05.059Z,16344
2019-04-16T06:37:06.416Z,16912
2019-04-16T06:38:07.781Z,17536
2019-04-16T06:39:09.139Z,18112
2019-04-16T06:40:10.501Z,18496
2019-04-16T06:41:11.852Z,18848
2019-04-16T06:42:13.219Z,19104
2019-04-16T06:43:14.581Z,19584
2019-04-16T06:44:15.940Z,19904
2019-04-16T06:45:17.412Z,20480
2019-04-16T06:46:18.632Z,20672
2019-04-16T06:47:20.015Z,21184
2019-04-16T06:48:21.381Z,21824
2019-04-16T06:49:22.736Z,22592
2019-04-16T06:50:31.264Z,23520
2019-04-16T06:51:25.432Z,24512
2019-04-16T06:52:26.783Z,25408
2019-04-16T06:53:30.260Z,26336
2019-04-16T06:54:32.860Z,27648
2019-04-16T06:55:35.006Z,30016
2019-04-16T06:56:32.194Z,33024
2019-04-16T06:57:33.554Z,37984
2019-04-16T06:58:50.342Z,41536
2019-04-16T06:59:36.258Z,42432
2019-04-16T07:00:37.623Z,49568
2019-04-16T07:01:41.493Z,40608
2019-04-16T07:02:43.192Z,42432
2019-04-16T07:03:41.647Z,44128
2019-04-16T07:04:43.004Z,45664
2019-04-16T07:05:44.371Z,51456
2019-04-16T07:06:45.750Z,55776
2019-04-16T07:07:47.133Z,63424
2019-04-16T07:08:50.165Z,68192
2019-04-16T07:09:49.835Z,80736
2019-04-16T07:10:51.198Z,89984
2019-04-16T07:11:54.514Z,91328
2019-04-16T07:12:53.962Z,92928
2019-04-16T07:13:55.254Z,89664
2019-04-16T07:14:56.661Z,89888
2019-04-16T07:15:58.035Z,90496
2019-04-16T07:17:00.218Z,91296
2019-04-16T07:18:02.511Z,80800
2019-04-16T07:19:02.059Z,73664
2019-04-16T07:20:04.823Z,67520
2019-04-16T07:21:04.758Z,64832
2019-04-16T07:22:06.124Z,62336
2019-04-16T07:23:07.488Z,65312
2019-04-16T07:24:08.862Z,60960
2019-04-16T07:25:50.155Z,60384
2019-04-16T07:26:51.208Z,60960
2019-04-16T07:27:53.703Z,57824
2019-04-16T07:28:58.491Z,55360
2019-04-16T07:29:55.366Z,54432
2019-04-16T07:30:56.521Z,52704
2019-04-16T07:31:57.853Z,52544
2019-04-16T07:33:00.666Z,51680
2019-04-16T07:34:00.548Z,52896
2019-04-16T07:35:02.001Z,52544
2019-04-16T07:36:04.193Z,52480
2019-04-16T07:37:10.209Z,49632
2019-04-16T07:38:11.949Z,46784
2019-04-16T07:39:13.507Z,44928
2019-04-16T07:40:14.258Z,43808
2019-04-16T07:41:17.075Z,39936
2019-04-16T07:42:21.471Z,39424
2019-04-16T07:43:18.384Z,41952
2019-04-16T07:44:19.753Z,41664
2019-04-16T07:45:21.123Z,42208
2019-04-16T07:46:22.489Z,42432
2019-04-16T07:47:23.864Z,42496
2019-04-16T07:48:25.235Z,42624
2019-04-16T07:49:27.132Z,42432
2019-04-16T07:50:29.515Z,42784
2019-04-16T07:51:29.252Z,43520
2019-04-16T07:52:30.628Z,44672
2019-04-16T07:53:32.004Z,46112
2019-04-16T07:54:33.379Z,45760
2019-04-16T07:55:34.757Z,45696
2019-04-16T07:56:36.127Z,46464
2019-04-16T07:57:37.504Z,47104
2019-04-16T07:58:38.883Z,48352
2019-04-16T07:59:40.253Z,50336
2019-04-16T08:00:41.699Z,51872
2019-04-16T08:01:44.080Z,53280
2019-04-16T08:02:44.309Z,54048
2019-04-16T08:03:45.677Z,52160
2019-04-16T08:04:47.044Z,49568
2019-04-16T08:05:48.412Z,49120
2019-04-16T08:06:49.789Z,49216
2019-04-16T08:07:52.942Z,48896
2019-04-16T08:08:53.874Z,48224
2019-04-16T08:09:53.853Z,48416
2019-04-16T08:10:55.214Z,48640
2019-04-16T08:11:56.609Z,48480
2019-04-16T08:13:00.462Z,48416
2019-04-16T08:13:59.327Z,48800
2019-04-16T08:15:12.514Z,48672
2019-04-16T08:16:02.038Z,49312
2019-04-16T08:17:03.405Z,50432
2019-04-16T08:18:04.946Z,51200
2019-04-16T08:19:06.124Z,51200
2019-04-16T08:20:07.495Z,51360
2019-04-16T08:21:11.869Z,51584
2019-04-16T08:22:15.498Z,50976
2019-04-16T08:23:11.545Z,52672
2019-04-16T08:24:12.913Z,51488
2019-04-16T08:25:14.277Z,53024
2019-04-16T08:26:15.649Z,53504
2019-04-16T08:27:19.216Z,53824
2019-04-16T08:28:18.368Z,53152
2019-04-16T08:29:19.737Z,53344
2019-04-16T08:30:21.114Z,52640
2019-04-16T08:31:22.489Z,53728
2019-04-16T08:32:25.709Z,52544
2019-04-16T08:33:28.203Z,53920
2019-04-16T08:34:26.566Z,54784
2019-04-16T08:35:27.949Z,55616
2019-04-16T08:36:29.325Z,55840
2019-04-16T08:37:30.690Z,56704
2019-04-16T08:38:34.854Z,57952
2019-04-16T08:39:33.399Z,61568
2019-04-16T08:40:34.773Z,66272
2019-04-16T08:41:36.141Z,66432
2019-04-16T08:42:44.297Z,68416
2019-04-16T08:43:38.866Z,70880
2019-04-16T08:44:40.254Z,73920
2019-04-16T08:45:41.664Z,72000
2019-04-16T08:46:43.043Z,69696
2019-04-16T08:47:45.205Z,72512
2019-04-16T08:48:49.005Z,67872
2019-04-16T08:49:47.140Z,59840
2019-04-16T08:50:49.582Z,61888
2019-04-16T08:51:50.983Z,60736
2019-04-16T08:52:52.441Z,65376
2019-04-16T08:53:53.823Z,64960
2019-04-16T08:54:55.229Z,65920
2019-04-16T08:55:56.641Z,67712
2019-04-16T08:56:58.086Z,69280
2019-04-16T08:57:59.488Z,71552
2019-04-16T08:59:01.392Z,66464
2019-04-16T09:00:02.442Z,73504
2019-04-16T09:01:03.564Z,80320
2019-04-16T09:02:04.955Z,77408
2019-04-16T09:03:06.793Z,64416
2019-04-16T09:04:08.000Z,65248
2019-04-16T09:05:11.495Z,80288
2019-04-16T09:06:13.625Z,83872
2019-04-16T09:07:13.335Z,68736
2019-04-16T09:08:13.939Z,67360
2019-04-16T09:09:18.251Z,66048
2019-04-16T09:10:21.385Z,66528
2019-04-16T09:11:23.477Z,68448
2019-04-16T09:12:18.973Z,71072
2019-04-16T09:13:20.251Z,74432
2019-04-16T09:14:25.365Z,79936
2019-04-16T09:15:22.979Z,75296
2019-04-16T09:16:24.375Z,78112
2019-04-16T09:17:25.746Z,80288
2019-04-16T09:18:27.126Z,77920
2019-04-16T09:19:28.521Z,72800
2019-04-16T09:20:29.940Z,66240
2019-04-16T09:21:31.321Z,65760
2019-04-16T09:22:32.696Z,65216
2019-04-16T09:23:34.192Z,66400
2019-04-16T09:24:40.497Z,67552
2019-04-16T09:25:36.903Z,81728
2019-04-16T09:26:38.287Z,81920
2019-04-16T09:27:39.678Z,99584
2019-04-16T09:28:41.040Z,91616
2019-04-16T09:29:42.425Z,84032
2019-04-16T09:30:46.536Z,85536
2019-04-16T09:31:45.139Z,81824
2019-04-16T09:32:46.536Z,69920
2019-04-16T09:33:47.910Z,61696
2019-04-16T09:34:49.290Z,77120
2019-04-16T09:35:50.697Z,81216
2019-04-16T09:36:52.071Z,101664
2019-04-16T09:37:53.451Z,98784
2019-04-16T09:38:54.830Z,84288
2019-04-16T09:39:56.204Z,90528
2019-04-16T09:40:57.585Z,58016
2019-04-16T09:41:58.964Z,72128
2019-04-16T09:43:00.378Z,64768
2019-04-16T09:44:01.770Z,90432
2019-04-16T09:45:05.169Z,79584
2019-04-16T09:46:10.962Z,73824
2019-04-16T09:47:05.820Z,90368
2019-04-16T09:48:07.190Z,78144
2019-04-16T09:49:08.561Z,87392
2019-04-16T09:50:10.999Z,94112
2019-04-16T09:51:11.282Z,75168
2019-04-16T09:52:12.672Z,87552
2019-04-16T09:53:14.153Z,97376
2019-04-16T09:54:15.399Z,79904
2019-04-16T09:55:18.884Z,74368
2019-04-16T09:56:22.200Z,77632
2019-04-16T09:57:19.471Z,84864
2019-04-16T09:58:22.117Z,77248
2019-04-16T09:59:22.189Z,83488
2019-04-16T10:00:23.575Z,79008
2019-04-16T10:01:24.961Z,77792
2019-04-16T10:02:26.426Z,89728
2019-04-16T10:03:28.460Z,83008
2019-04-16T10:04:29.027Z,86848
2019-04-16T10:05:30.417Z,80480
2019-04-16T10:06:31.806Z,78688
2019-04-16T10:07:33.194Z,78560
2019-04-16T10:08:34.621Z,74912
2019-04-16T10:09:35.989Z,70976
2019-04-16T10:10:37.372Z,68640
2019-04-16T10:11:38.746Z,64320
2019-04-16T10:12:40.149Z,62944
2019-04-16T10:13:41.523Z,64448
2019-04-16T10:14:42.908Z,63648
2019-04-16T10:15:44.277Z,70688
2019-04-16T10:16:45.679Z,69760
2019-04-16T10:17:47.080Z,74496
2019-04-16T10:18:48.449Z,81888
2019-04-16T10:19:49.834Z,85504
2019-04-16T10:20:51.257Z,90496
2019-04-16T10:21:54.346Z,91456
2019-04-16T10:22:53.964Z,98624
2019-04-16T10:23:55.375Z,92960
2019-04-16T10:24:56.740Z,90368
2019-04-16T10:25:58.131Z,96000
2019-04-16T10:26:59.956Z,90208
2019-04-16T10:28:01.889Z,81824
2019-04-16T10:29:02.228Z,77760
2019-04-16T10:30:03.603Z,85024
2019-04-16T10:31:05.109Z,89664
2019-04-16T10:32:06.459Z,83968
2019-04-16T10:33:07.872Z,77472
2019-04-16T10:34:09.255Z,74432
2019-04-16T10:35:10.637Z,70848
2019-04-16T10:36:12.031Z,71936
2019-04-16T10:37:13.426Z,71040
2019-04-16T10:38:14.877Z,70976
2019-04-16T10:39:16.177Z,71648
2019-04-16T10:40:17.813Z,68064
2019-04-16T10:41:18.939Z,73824
2019-04-16T10:42:20.329Z,74496
2019-04-16T10:43:21.994Z,78688
2019-04-16T10:44:23.068Z,86752
2019-04-16T10:45:24.424Z,94752
2019-04-16T10:46:25.798Z,98528
2019-04-16T10:47:27.175Z,96256
2019-04-16T10:48:28.572Z,86784
2019-04-16T10:49:29.972Z,82112
2019-04-16T10:50:31.388Z,82944
2019-04-16T10:51:32.765Z,86208
2019-04-16T10:52:34.137Z,91904
2019-04-16T10:53:35.516Z,98080
2019-04-16T10:54:37.344Z,101632
2019-04-16T10:55:38.241Z,101312
2019-04-16T10:56:39.633Z,104032
2019-04-16T10:57:41.035Z,99488
2019-04-16T10:58:42.402Z,90720
2019-04-16T10:59:43.800Z,83296
2019-04-16T11:00:45.182Z,78848
2019-04-16T11:01:46.571Z,76064
2019-04-16T11:02:47.982Z,73120
2019-04-16T11:03:49.367Z,72320
2019-04-16T11:04:50.735Z,72224
2019-04-16T11:05:56.784Z,72736
2019-04-16T11:06:53.476Z,74112
2019-04-16T11:07:54.951Z,76992
2019-04-16T11:08:56.259Z,78784
2019-04-16T11:09:57.641Z,81536
2019-04-16T11:10:59.055Z,82272
2019-04-16T11:12:04.758Z,85216
2019-04-16T11:13:01.755Z,90368
2019-04-16T11:14:03.160Z,92384
2019-04-16T11:15:04.506Z,90528
2019-04-16T11:16:05.985Z,90016
2019-04-16T11:17:07.266Z,91072
2019-04-16T11:18:08.940Z,88256
2019-04-16T11:19:10.318Z,84672
2019-04-16T11:20:11.830Z,79392
2019-04-16T11:21:13.032Z,76896
2019-04-16T11:22:14.465Z,77024
2019-04-16T11:23:15.801Z,75872
2019-04-16T11:24:20.211Z,84544
2019-04-16T11:25:18.590Z,92928
2019-04-16T11:26:19.946Z,97952
2019-04-16T11:27:21.425Z,95328
2019-04-16T11:28:22.858Z,92160
2019-04-16T11:29:24.231Z,96064
2019-04-16T11:30:25.625Z,93216
2019-04-16T11:31:26.993Z,78688
2019-04-16T11:32:28.408Z,76352
2019-04-16T11:33:29.762Z,79648
2019-04-16T11:34:31.134Z,78912
2019-04-16T11:35:32.537Z,84096
2019-04-16T11:36:33.918Z,86080
2019-04-16T11:37:36.366Z,85632
2019-04-16T11:38:36.647Z,82304
2019-04-16T11:39:38.006Z,81760
2019-04-16T11:40:41.063Z,86880
2019-04-16T11:41:40.751Z,86912
2019-04-16T11:42:42.115Z,82464
2019-04-16T11:43:43.588Z,80256
2019-04-16T11:44:44.936Z,77056
2019-04-16T11:45:46.383Z,69280
2019-04-16T11:46:47.758Z,65344
2019-04-16T11:47:49.118Z,68512
2019-04-16T11:48:50.616Z,68000
2019-04-16T11:49:51.832Z,70496
2019-04-16T11:50:53.248Z,70176
2019-04-16T11:51:54.600Z,69440
2019-04-16T11:52:58.181Z,76960
2019-04-16T11:53:57.376Z,82144
2019-04-16T11:55:00.739Z,85184
2019-04-16T11:56:00.123Z,80352
2019-04-16T11:57:01.558Z,71456
2019-04-16T11:58:02.919Z,64224
2019-04-16T11:59:04.563Z,65632
2019-04-16T12:00:08.225Z,66304
2019-04-16T12:01:07.123Z,68288
2019-04-16T12:02:08.498Z,71808
2019-04-16T12:03:10.145Z,74912
2019-04-16T12:04:15.132Z,80128
2019-04-16T12:05:12.642Z,79008
2019-04-16T12:06:27.038Z,72896
2019-04-16T12:07:15.351Z,68672
2019-04-16T12:08:16.748Z,66336
2019-04-16T12:09:18.137Z,66560
2019-04-16T12:10:19.506Z,66816
2019-04-16T12:11:20.904Z,66720
2019-04-16T12:12:22.298Z,68128
2019-04-16T12:13:23.661Z,70016
2019-04-16T12:14:32.374Z,76416
2019-04-16T12:15:26.351Z,85504
2019-04-16T12:16:27.753Z,94176
2019-04-16T12:17:29.130Z,95968
2019-04-16T12:18:31.972Z,99712
2019-04-16T12:19:31.824Z,67456
2019-04-16T12:20:33.193Z,99136
2019-04-16T12:21:34.604Z,104032
2019-04-16T12:22:35.976Z,110144
2019-04-16T12:23:37.393Z,101888
2019-04-16T12:24:38.745Z,90880
2019-04-16T12:25:40.102Z,36256
2019-04-16T12:26:41.498Z,31296
2019-04-16T12:27:42.871Z,31328
2019-04-16T12:28:44.263Z,38848
2019-04-16T12:29:45.642Z,37344
2019-04-16T12:30:47.007Z,93728
2019-04-16T12:31:48.388Z,39296
2019-04-16T12:32:49.777Z,40672
2019-04-16T12:33:51.143Z,37696
2019-04-16T12:34:52.603Z,42400
2019-04-16T12:35:53.983Z,87168
2019-04-16T12:36:55.328Z,41184
2019-04-16T12:37:56.743Z,42784
2019-04-16T12:38:58.209Z,44928
2019-04-16T12:39:59.571Z,47840
2019-04-16T12:41:00.968Z,57824
2019-04-16T12:42:02.360Z,77632
2019-04-16T12:43:03.743Z,90400
2019-04-16T12:44:05.265Z,98176
2019-04-16T12:45:08.627Z,97664
2019-04-16T12:46:08.015Z,92416
2019-04-16T12:47:09.187Z,87392
2019-04-16T12:48:10.526Z,83840
2019-04-16T12:49:11.963Z,81664
2019-04-16T12:50:16.488Z,94848
2019-04-16T12:51:14.814Z,93760
2019-04-16T12:52:17.359Z,92512
2019-04-16T12:53:17.307Z,92032
2019-04-16T12:54:18.791Z,92704
2019-04-16T12:55:23.519Z,91936
2019-04-16T12:56:21.423Z,89504
2019-04-16T12:57:22.767Z,89920
2019-04-16T12:58:25.552Z,87168
2019-04-16T12:59:25.482Z,78880
2019-04-16T13:00:31.308Z,82848
2019-04-16T13:01:28.212Z,88864
2019-04-16T13:02:29.594Z,92544
2019-04-16T13:03:30.984Z,91584
2019-04-16T13:04:32.364Z,90432
2019-04-16T13:05:33.737Z,88384
2019-04-16T13:06:35.123Z,85728
2019-04-16T13:07:38.989Z,85056
2019-04-16T13:08:37.854Z,85120
2019-04-16T13:09:39.248Z,86560
2019-04-16T13:10:40.678Z,85088
2019-04-16T13:11:42.054Z,84192
2019-04-16T13:12:43.438Z,80768
2019-04-16T13:13:44.815Z,78272
2019-04-16T13:14:59.908Z,78560
2019-04-16T13:15:47.534Z,74176
2019-04-16T13:16:48.919Z,75680
2019-04-16T13:17:50.836Z,58016
2019-04-16T13:18:51.647Z,52512
2019-04-16T13:19:53.047Z,36576
2019-04-16T13:20:57.048Z,36864
2019-04-16T13:21:59.546Z,42944
2019-04-16T13:22:57.139Z,48672
2019-04-16T13:23:58.569Z,69504
2019-04-16T13:25:40.452Z,71520
2019-04-16T13:26:41.812Z,64352
2019-04-16T13:28:14.389Z,47552
2019-04-16T13:29:17.267Z,46112
2019-04-16T13:30:48.317Z,38848
2019-04-16T13:31:49.712Z,54080
2019-04-16T13:32:51.069Z,62016
2019-04-16T13:33:52.455Z,70016
2019-04-16T13:34:53.837Z,40000
2019-04-16T13:35:55.229Z,38912
2019-04-16T13:36:59.209Z,34240
2019-04-16T13:37:57.996Z,34656
2019-04-16T13:38:59.362Z,33728
2019-04-16T13:40:00.744Z,45024
2019-04-16T13:41:02.639Z,34848
2019-04-16T13:42:03.476Z,35136
2019-04-16T13:43:05.895Z,38240
2019-04-16T13:44:08.962Z,41728
2019-04-16T13:45:17.258Z,51648
2019-04-16T13:46:08.867Z,46848
2019-04-16T13:47:10.239Z,28864
2019-04-16T13:48:16.434Z,25376
2019-04-16T13:49:13.232Z,24288
2019-04-16T13:50:14.295Z,25248
2019-04-16T13:51:18.684Z,26976